Time;durP1;ratioP1;P1;durP2;ratioP2;P2;SDS_P1;SDS_P2;PMS_P1;PMS_P2;Temp;Humidity;BMP_temperature;BMP_pressure;BME280_temperature;BME280_humidity;BME280_pressure;Samples;Min_cycle;Max_cycle;Signal;HPM_P1;HPM_P2
2023/01/01 00:01:14;;;;;;;173.93;120.53;;;;;;;;;;5043515;28;20041;-91
2023/01/01 00:04:00;;;;;;;145.18;106.53;;;;;;;;;;5054467;28;20035;-90
2023/01/01 00:06:45;;;;;;;134.25;102.13;;;;;;;;;;5035099;28;20090;-90
2023/01/01 00:12:34;;;;;;;143.07;101.03;;;;;;;;;;5042233;28;20120;-91
2023/01/01 00:15:20;;;;;;;124.97;92.30;;;;;;;;;;5041496;28;20036;-89
2023/01/01 00:18:05;;;;;;;121.35;89.25;;;;;;;;;;5039883;28;20033;-69
2023/01/01 00:20:50;;;;;;;127.15;93.95;;;;;;;;;;5028589;28;20032;-75
2023/01/01 00:23:35;;;;;;;115.00;84.63;;;;;;;;;;5033325;28;20396;-76
2023/01/01 00:26:20;;;;;;;122.80;86.38;;;;;;;;;;5037085;28;20024;-76
2023/01/01 00:29:06;;;;;;;111.50;82.45;;;;;;;;;;5036053;28;20540;-78
2023/01/01 00:31:51;;;;;;;117.00;84.00;;;;;;;;;;5033227;28;20116;-77
2023/01/01 00:34:36;;;;;;;105.20;78.13;;;;;;;;;;5033534;28;20029;-74
2023/01/01 00:37:21;;;;;;;107.18;76.68;;;;;;;;;;5019929;28;20484;-70
2023/01/01 00:40:07;;;;;;;97.30;70.57;;;;;;;;;;5033048;28;20032;-69
2023/01/01 00:42:52;;;;;;;85.18;60.83;;;;;;;;;;5033464;28;20032;-70
2023/01/01 00:45:37;;;;;;;81.60;59.33;;;;;;;;;;5033206;28;20025;-70
2023/01/01 00:48:23;;;;;;;80.35;59.83;;;;;;;;;;5033126;28;20029;-68
2023/01/01 00:51:09;;;;;;;80.75;57.95;;;;;;;;;;5032949;28;20148;-69
2023/01/01 00:53:54;;;;;;;71.85;55.92;;;;;;;;;;5033702;28;20037;-91
2023/01/01 00:56:39;;;;;;;74.65;56.33;;;;;;;;;;5033637;28;20119;-88
2023/01/01 00:59:25;;;;;;;63.45;47.63;;;;;;;;;;5042183;28;20036;-89
2023/01/01 01:02:10;;;;;;;66.55;49.30;;;;;;;;;;5022122;28;20056;-90
2023/01/01 01:04:55;;;;;;;57.08;42.45;;;;;;;;;;5033592;28;20119;-88
2023/01/01 01:07:41;;;;;;;48.88;38.13;;;;;;;;;;5034010;28;20430;-89
2023/01/01 01:10:26;;;;;;;54.30;36.85;;;;;;;;;;5033792;28;20044;-67
2023/01/01 01:13:11;;;;;;;43.20;32.95;;;;;;;;;;5035614;28;20048;-75
2023/01/01 01:15:56;;;;;;;41.60;29.83;;;;;;;;;;5037113;28;20029;-66
2023/01/01 01:18:42;;;;;;;39.72;27.10;;;;;;;;;;5037052;28;20028;-67
2023/01/01 01:21:29;;;;;;;41.63;26.33;;;;;;;;;;5037295;28;20369;-67
2023/01/01 01:24:14;;;;;;;36.53;24.92;;;;;;;;;;5037217;28;20037;-67
2023/01/01 01:26:59;;;;;;;33.83;23.63;;;;;;;;;;5033972;28;20044;-66
2023/01/01 01:29:45;;;;;;;29.88;18.95;;;;;;;;;;5038173;28;20396;-74
2023/01/01 01:32:30;;;;;;;25.15;17.88;;;;;;;;;;5028543;28;20037;-66
2023/01/01 01:35:15;;;;;;;21.83;15.32;;;;;;;;;;5034945;28;20036;-68
2023/01/01 01:38:01;;;;;;;27.17;18.58;;;;;;;;;;5034301;28;20044;-66
2023/01/01 01:40:46;;;;;;;29.13;19.10;;;;;;;;;;5036872;28;20036;-67
2023/01/01 01:43:31;;;;;;;22.17;14.38;;;;;;;;;;5036692;28;20029;-67
2023/01/01 01:46:20;;;;;;;24.02;14.98;;;;;;;;;;5036505;28;20388;-66
2023/01/01 01:49:22;;;;;;;20.55;15.05;;;;;;;;;;5036835;28;20426;-89
2023/01/01 01:52:07;;;;;;;17.27;11.45;;;;;;;;;;5037451;28;20037;-90
2023/01/01 01:54:53;;;;;;;19.92;11.73;;;;;;;;;;5025935;28;20041;-90
2023/01/01 01:57:39;;;;;;;20.17;11.90;;;;;;;;;;5037761;28;20033;-89
2023/01/01 02:00:24;;;;;;;16.92;11.77;;;;;;;;;;5036916;28;20124;-89
2023/01/01 02:03:20;;;;;;;19.98;11.13;;;;;;;;;;5044646;28;20032;-90
2023/01/01 02:06:05;;;;;;;17.30;11.88;;;;;;;;;;5022880;28;20142;-77
2023/01/01 02:08:51;;;;;;;20.50;11.80;;;;;;;;;;5024173;28;20052;-75
2023/01/01 02:11:36;;;;;;;19.50;11.73;;;;;;;;;;5035836;28;20024;-74
2023/01/01 02:14:21;;;;;;;21.90;11.02;;;;;;;;;;5035984;28;20041;-75
2023/01/01 02:17:09;;;;;;;18.77;10.60;;;;;;;;;;5032965;28;20037;-74
2023/01/01 02:20:01;;;;;;;23.65;13.18;;;;;;;;;;5033697;28;20029;-74
2023/01/01 02:22:55;;;;;;;18.98;12.15;;;;;;;;;;5021915;28;20029;-75
2023/01/01 02:25:40;;;;;;;17.20;11.27;;;;;;;;;;5034847;28;20021;-76
2023/01/01 02:28:44;;;;;;;19.02;11.30;;;;;;;;;;5036005;28;20037;-76
2023/01/01 02:31:33;;;;;;;17.00;10.93;;;;;;;;;;5035960;28;20036;-75
2023/01/01 02:34:19;;;;;;;19.83;11.63;;;;;;;;;;5039695;28;20094;-77
2023/01/01 02:37:06;;;;;;;20.27;11.27;;;;;;;;;;5038451;28;20443;-76
2023/01/01 02:39:56;;;;;;;15.52;9.10;;;;;;;;;;5027052;28;20029;-77
2023/01/01 02:42:41;;;;;;;15.48;9.65;;;;;;;;;;5041247;28;20059;-86
2023/01/01 02:45:26;;;;;;;19.23;10.52;;;;;;;;;;5056218;28;20029;-76
2023/01/01 02:48:30;;;;;;;16.65;10.63;;;;;;;;;;5034928;28;20546;-68
2023/01/01 02:51:21;;;;;;;17.15;10.02;;;;;;;;;;5032796;28;20052;-68
2023/01/01 02:54:22;;;;;;;19.23;12.50;;;;;;;;;;5037066;28;20032;-69
2023/01/01 02:57:11;;;;;;;15.35;9.63;;;;;;;;;;5014719;28;20123;-71
2023/01/01 03:03:18;;;;;;;16.08;8.60;;;;;;;;;;5050537;28;20024;-70
2023/01/01 03:06:22;;;;;;;19.27;9.63;;;;;;;;;;5027648;28;20330;-67
2023/01/01 03:09:13;;;;;;;18.17;9.07;;;;;;;;;;5037958;28;20071;-68
2023/01/01 03:11:58;;;;;;;16.90;9.80;;;;;;;;;;5048953;28;20036;-69
2023/01/01 03:14:53;;;;;;;15.35;9.63;;;;;;;;;;5053622;28;20020;-68
2023/01/01 03:17:40;;;;;;;16.80;9.00;;;;;;;;;;5035322;28;20037;-65
2023/01/01 03:20:27;;;;;;;15.60;8.70;;;;;;;;;;5035058;28;20036;-72
2023/01/01 03:23:22;;;;;;;18.83;9.52;;;;;;;;;;5025988;28;20017;-89
2023/01/01 03:26:09;;;;;;;15.10;8.73;;;;;;;;;;5035074;28;20040;-88
2023/01/01 03:28:56;;;;;;;11.90;8.23;;;;;;;;;;5035223;28;20356;-88
2023/01/01 03:31:43;;;;;;;16.95;9.32;;;;;;;;;;5048412;28;20358;-88
2023/01/01 03:34:36;;;;;;;15.57;8.95;;;;;;;;;;5021620;28;20112;-90
2023/01/01 03:37:23;;;;;;;16.27;8.52;;;;;;;;;;5044647;28;20482;-88
2023/01/01 03:40:09;;;;;;;14.77;8.73;;;;;;;;;;5042512;28;20040;-70
2023/01/01 03:42:56;;;;;;;15.65;8.68;;;;;;;;;;5034558;28;20115;-77
2023/01/01 03:45:43;;;;;;;14.82;8.68;;;;;;;;;;5034371;28;20060;-76
2023/01/01 03:48:54;;;;;;;17.10;8.85;;;;;;;;;;5035668;28;20067;-74
2023/01/01 03:51:47;;;;;;;16.00;9.32;;;;;;;;;;5027805;28;20379;-75
2023/01/01 03:54:40;;;;;;;16.60;9.67;;;;;;;;;;5033275;28;20029;-76
2023/01/01 03:57:31;;;;;;;13.10;8.10;;;;;;;;;;5033887;28;20037;-75
2023/01/01 04:00:18;;;;;;;12.30;7.25;;;;;;;;;;5034728;28;20028;-68
2023/01/01 04:03:14;;;;;;;19.23;7.95;;;;;;;;;;5033897;28;20037;-68
2023/01/01 04:06:01;;;;;;;15.90;8.55;;;;;;;;;;5034016;28;20032;-69
2023/01/01 04:08:48;;;;;;;12.88;8.77;;;;;;;;;;5033999;28;20316;-68
2023/01/01 04:14:40;;;;;;;15.07;7.90;;;;;;;;;;5021188;28;20032;-74
2023/01/01 04:17:25;;;;;;;15.80;7.57;;;;;;;;;;5034258;28;20055;-91
2023/01/01 04:20:11;;;;;;;12.90;7.65;;;;;;;;;;5034258;28;20029;-67
2023/01/01 04:22:57;;;;;;;12.00;7.40;;;;;;;;;;5033597;28;20025;-67
2023/01/01 04:25:42;;;;;;;13.23;7.97;;;;;;;;;;5034163;28;20033;-69
2023/01/01 04:28:27;;;;;;;20.90;7.95;;;;;;;;;;5046502;28;20095;-69
2023/01/01 04:31:12;;;;;;;14.00;7.35;;;;;;;;;;5047582;28;20125;-67
2023/01/01 04:33:58;;;;;;;17.45;7.35;;;;;;;;;;5035934;28;20519;-70
2023/01/01 04:36:43;;;;;;;14.65;8.18;;;;;;;;;;5048191;28;20034;-67
2023/01/01 04:39:28;;;;;;;14.30;7.72;;;;;;;;;;5033572;28;20499;-66
2023/01/01 04:42:13;;;;;;;13.60;7.60;;;;;;;;;;5050714;28;20028;-67
2023/01/01 04:44:59;;;;;;;12.82;7.18;;;;;;;;;;5050405;28;20060;-65
2023/01/01 04:47:44;;;;;;;15.50;8.55;;;;;;;;;;5040739;28;20039;-67
2023/01/01 04:50:29;;;;;;;19.08;8.48;;;;;;;;;;5033530;28;20024;-65
2023/01/01 04:53:14;;;;;;;16.17;7.03;;;;;;;;;;5047352;28;20488;-66
2023/01/01 04:56:04;;;;;;;14.23;6.57;;;;;;;;;;5046977;28;20028;-67
2023/01/01 04:58:49;;;;;;;15.18;8.32;;;;;;;;;;5015028;28;20400;-67
2023/01/01 05:01:34;;;;;;;15.48;6.57;;;;;;;;;;5038472;28;20063;-67
2023/01/01 05:04:20;;;;;;;13.23;6.38;;;;;;;;;;5006023;28;20044;-66
2023/01/01 05:07:05;;;;;;;11.60;5.90;;;;;;;;;;5032569;28;20511;-67
2023/01/01 05:09:50;;;;;;;9.70;5.72;;;;;;;;;;5047448;28;20044;-71
2023/01/01 05:12:35;;;;;;;11.50;6.40;;;;;;;;;;5046751;28;20046;-71
2023/01/01 05:15:21;;;;;;;14.82;6.40;;;;;;;;;;5056568;28;20076;-86
2023/01/01 05:18:06;;;;;;;8.88;5.43;;;;;;;;;;5033386;28;20035;-88
2023/01/01 05:20:51;;;;;;;9.73;5.63;;;;;;;;;;5051372;28;20029;-86
2023/01/01 05:23:37;;;;;;;9.75;5.53;;;;;;;;;;5041254;28;20508;-87
2023/01/01 05:26:23;;;;;;;10.80;5.55;;;;;;;;;;5036864;28;20041;-89
2023/01/01 05:29:08;;;;;;;10.25;5.45;;;;;;;;;;5033650;28;20120;-68
2023/01/01 05:31:53;;;;;;;12.18;5.93;;;;;;;;;;5047077;28;20360;-76
2023/01/01 05:34:39;;;;;;;10.40;5.07;;;;;;;;;;5032886;28;20048;-78
2023/01/01 05:37:24;;;;;;;11.65;5.78;;;;;;;;;;5032797;28;20092;-77
2023/01/01 05:40:09;;;;;;;11.00;6.20;;;;;;;;;;5034108;28;20386;-76
2023/01/01 05:42:54;;;;;;;13.68;6.50;;;;;;;;;;5032348;28;20464;-75
2023/01/01 05:45:40;;;;;;;14.63;5.88;;;;;;;;;;5047607;28;20279;-74
2023/01/01 05:48:25;;;;;;;10.52;5.75;;;;;;;;;;5041267;28;20091;-89
2023/01/01 05:51:15;;;;;;;9.30;4.80;;;;;;;;;;5033185;28;20324;-71
2023/01/01 05:54:00;;;;;;;;;;;;;;;;;;5033097;28;20108;-73
2023/01/01 05:56:45;;;;;;;11.50;6.13;;;;;;;;;;5032551;28;20003;-72
2023/01/01 05:59:30;;;;;;;13.65;6.18;;;;;;;;;;5016364;28;20068;-71
2023/01/01 06:02:16;;;;;;;9.93;5.05;;;;;;;;;;5046871;28;20483;-71
2023/01/01 06:05:01;;;;;;;12.05;5.53;;;;;;;;;;5050465;28;20033;-90
2023/01/01 06:07:46;;;;;;;10.20;4.95;;;;;;;;;;5028012;28;20029;-76
2023/01/01 06:10:31;;;;;;;9.77;4.00;;;;;;;;;;5036187;28;20392;-75
2023/01/01 06:13:17;;;;;;;9.95;5.80;;;;;;;;;;5049959;28;20029;-75
2023/01/01 06:16:02;;;;;;;9.30;4.85;;;;;;;;;;5050400;28;20074;-75
2023/01/01 06:18:48;;;;;;;7.85;4.47;;;;;;;;;;5041133;28;20049;-75
2023/01/01 06:21:33;;;;;;;12.50;5.38;;;;;;;;;;5035415;28;20029;-76
2023/01/01 06:24:18;;;;;;;9.63;5.07;;;;;;;;;;5036165;28;20033;-68
2023/01/01 06:27:04;;;;;;;10.65;4.78;;;;;;;;;;5049651;28;20121;-72
2023/01/01 06:29:49;;;;;;;8.63;4.15;;;;;;;;;;5035975;28;20063;-73
2023/01/01 06:32:34;;;;;;;9.73;4.80;;;;;;;;;;5049833;28;20072;-72
2023/01/01 06:35:19;;;;;;;10.20;4.28;;;;;;;;;;5049976;28;20179;-72
2023/01/01 06:38:05;;;;;;;10.23;5.75;;;;;;;;;;5035063;28;20029;-72
2023/01/01 06:41:00;;;;;;;7.63;4.38;;;;;;;;;;5049840;28;20031;-73
2023/01/01 06:43:46;;;;;;;8.55;4.47;;;;;;;;;;5032262;28;20048;-67
2023/01/01 06:46:32;;;;;;;10.52;5.13;;;;;;;;;;5035842;28;20482;-77
2023/01/01 06:49:17;;;;;;;11.50;4.35;;;;;;;;;;5035642;28;20053;-76
2023/01/01 06:52:02;;;;;;;9.15;4.80;;;;;;;;;;5056544;28;20064;-76
2023/01/01 06:54:47;;;;;;;10.52;5.70;;;;;;;;;;5022191;28;20126;-78
2023/01/01 06:57:33;;;;;;;10.23;5.28;;;;;;;;;;5035612;28;20048;-76
2023/01/01 07:00:18;;;;;;;12.57;5.25;;;;;;;;;;5016493;28;20034;-75
2023/01/01 07:03:04;;;;;;;8.43;4.93;;;;;;;;;;5049013;28;20036;-78
2023/01/01 07:05:49;;;;;;;9.88;5.35;;;;;;;;;;5035284;28;20379;-68
2023/01/01 07:08:34;;;;;;;6.95;4.13;;;;;;;;;;5049234;28;20055;-68
2023/01/01 07:11:20;;;;;;;10.02;4.30;;;;;;;;;;5034699;28;20387;-71
2023/01/01 07:14:05;;;;;;;8.38;4.47;;;;;;;;;;5034943;28;20040;-69
2023/01/01 07:16:50;;;;;;;9.55;4.57;;;;;;;;;;5048560;28;20036;-71
2023/01/01 07:19:36;;;;;;;12.60;5.10;;;;;;;;;;5049186;28;20375;-76
2023/01/01 07:22:21;;;;;;;11.18;4.57;;;;;;;;;;5024862;28;20028;-67
2023/01/01 07:25:06;;;;;;;12.15;5.60;;;;;;;;;;5037993;28;20083;-68
2023/01/01 07:27:51;;;;;;;10.68;4.70;;;;;;;;;;5034674;28;20029;-66
2023/01/01 07:30:37;;;;;;;10.55;5.07;;;;;;;;;;5034994;28;20395;-66
2023/01/01 07:33:22;;;;;;;9.57;4.53;;;;;;;;;;5048523;28;20037;-68
2023/01/01 07:36:08;;;;;;;9.73;5.25;;;;;;;;;;5034634;28;20230;-68
2023/01/01 07:38:53;;;;;;;9.75;4.38;;;;;;;;;;5034177;28;20142;-70
2023/01/01 07:41:38;;;;;;;10.05;4.95;;;;;;;;;;5047841;28;20100;-69
2023/01/01 07:44:23;;;;;;;9.20;4.45;;;;;;;;;;5047203;28;20033;-69
2023/01/01 07:47:22;;;;;;;8.07;4.00;;;;;;;;;;5046835;28;20357;-69
2023/01/01 07:50:13;;;;;;;7.13;3.50;;;;;;;;;;5047454;28;20056;-68
2023/01/01 07:52:59;;;;;;;9.48;4.90;;;;;;;;;;5033157;28;20096;-69
2023/01/01 07:55:44;;;;;;;8.48;4.15;;;;;;;;;;5042638;28;20036;-91
2023/01/01 07:58:29;;;;;;;8.48;4.18;;;;;;;;;;5033579;28;20037;-68
2023/01/01 08:01:15;;;;;;;9.30;4.75;;;;;;;;;;5023172;28;20040;-68
2023/01/01 08:04:00;;;;;;;7.95;4.70;;;;;;;;;;5047693;28;20025;-67
2023/01/01 08:06:45;;;;;;;9.05;4.53;;;;;;;;;;5048036;28;20393;-67
2023/01/01 08:09:30;;;;;;;8.07;4.72;;;;;;;;;;5018089;28;20048;-67
2023/01/01 08:12:15;;;;;;;8.13;3.85;;;;;;;;;;5047932;28;20033;-67
2023/01/01 08:15:01;;;;;;;9.43;4.38;;;;;;;;;;5047625;28;20466;-67
2023/01/01 08:17:46;;;;;;;8.40;4.15;;;;;;;;;;5047128;28;20041;-77
2023/01/01 08:20:32;;;;;;;7.55;3.47;;;;;;;;;;5033882;28;20024;-75
2023/01/01 08:23:17;;;;;;;10.90;4.47;;;;;;;;;;5032663;28;20033;-76
2023/01/01 08:26:02;;;;;;;9.40;4.35;;;;;;;;;;5036170;28;20037;-77
2023/01/01 08:28:47;;;;;;;9.23;4.60;;;;;;;;;;5051501;28;20033;-76
2023/01/01 08:31:33;;;;;;;7.95;4.18;;;;;;;;;;5020322;28;20029;-75
2023/01/01 08:34:18;;;;;;;8.15;3.70;;;;;;;;;;5033484;28;20442;-70
2023/01/01 08:37:03;;;;;;;7.35;4.45;;;;;;;;;;5047385;28;20044;-74
2023/01/01 08:39:49;;;;;;;7.88;4.30;;;;;;;;;;5033297;28;20035;-76
2023/01/01 08:42:34;;;;;;;12.48;4.75;;;;;;;;;;5033936;28;20033;-76
2023/01/01 08:45:20;;;;;;;7.43;4.10;;;;;;;;;;5047361;28;20093;-75
2023/01/01 08:48:05;;;;;;;9.38;4.65;;;;;;;;;;5038388;28;20422;-75
2023/01/01 08:50:53;;;;;;;7.40;3.60;;;;;;;;;;5020626;28;20086;-69
2023/01/01 08:53:39;;;;;;;8.85;4.45;;;;;;;;;;5033389;28;20309;-74
2023/01/01 08:56:24;;;;;;;6.00;4.28;;;;;;;;;;5047713;28;20060;-77
2023/01/01 08:59:09;;;;;;;7.50;4.07;;;;;;;;;;5049914;28;20035;-75
2023/01/01 09:01:54;;;;;;;12.73;4.57;;;;;;;;;;5041334;28;20133;-78
2023/01/01 09:04:40;;;;;;;7.97;3.85;;;;;;;;;;5046933;28;20040;-74
2023/01/01 09:07:25;;;;;;;6.03;4.05;;;;;;;;;;5044260;28;20464;-77
2023/01/01 09:10:10;;;;;;;7.97;3.58;;;;;;;;;;5046571;28;20036;-78
2023/01/01 09:12:55;;;;;;;6.40;3.28;;;;;;;;;;5047749;28;20456;-68
2023/01/01 09:15:44;;;;;;;9.80;3.67;;;;;;;;;;5032055;28;20068;-71
2023/01/01 09:18:29;;;;;;;7.93;4.07;;;;;;;;;;5044852;28;20044;-70
2023/01/01 09:21:15;;;;;;;7.60;4.20;;;;;;;;;;5031642;28;20487;-70
2023/01/01 09:24:00;;;;;;;8.32;4.05;;;;;;;;;;5025503;28;20029;-69
2023/01/01 09:26:45;;;;;;;7.40;4.07;;;;;;;;;;5021927;28;20029;-69
2023/01/01 09:29:30;;;;;;;9.27;3.80;;;;;;;;;;5033072;28;20483;-75
2023/01/01 09:32:17;;;;;;;11.82;3.65;;;;;;;;;;5044529;28;20125;-68
2023/01/01 09:35:02;;;;;;;8.68;3.92;;;;;;;;;;5036895;28;20098;-71
2023/01/01 09:37:48;;;;;;;7.93;4.55;;;;;;;;;;5036817;28;20530;-70
2023/01/01 09:40:45;;;;;;;7.22;4.03;;;;;;;;;;5050932;28;20087;-69
2023/01/01 09:43:41;;;;;;;6.40;3.63;;;;;;;;;;5050569;28;20383;-69
2023/01/01 09:46:26;;;;;;;9.25;4.40;;;;;;;;;;5037942;28;20037;-70
2023/01/01 09:49:32;;;;;;;8.75;4.25;;;;;;;;;;5031936;28;20530;-72
2023/01/01 09:52:17;;;;;;;9.85;5.28;;;;;;;;;;5022776;28;20472;-71
2023/01/01 09:55:05;;;;;;;7.45;4.10;;;;;;;;;;5036688;28;20169;-71
2023/01/01 09:57:50;;;;;;;6.40;3.63;;;;;;;;;;5036459;28;20100;-71
2023/01/01 10:00:37;;;;;;;7.82;4.43;;;;;;;;;;5024187;28;20028;-70
2023/01/01 10:03:28;;;;;;;7.18;4.38;;;;;;;;;;5044501;28;20075;-71
2023/01/01 10:06:35;;;;;;;7.97;4.03;;;;;;;;;;5034996;28;20239;-69
2023/01/01 10:09:25;;;;;;;17.60;4.20;;;;;;;;;;5036136;28;20048;-75
2023/01/01 10:12:16;;;;;;;8.93;4.05;;;;;;;;;;5036276;28;20127;-75
2023/01/01 10:15:11;;;;;;;10.15;5.07;;;;;;;;;;5036079;28;20033;-76
2023/01/01 10:17:58;;;;;;;7.78;5.00;;;;;;;;;;5016104;28;20036;-76
2023/01/01 10:20:54;;;;;;;7.97;4.20;;;;;;;;;;5045490;28;20028;-76
2023/01/01 10:23:42;;;;;;;9.40;4.65;;;;;;;;;;5041319;28;20064;-88
2023/01/01 10:26:28;;;;;;;8.80;4.30;;;;;;;;;;5022214;28;20361;-68
2023/01/01 10:29:15;;;;;;;10.55;4.05;;;;;;;;;;5020672;28;20396;-68
2023/01/01 10:32:05;;;;;;;7.18;3.85;;;;;;;;;;5034414;28;20499;-69
2023/01/01 10:34:50;;;;;;;6.90;3.80;;;;;;;;;;5041260;28;20053;-69
2023/01/01 10:37:36;;;;;;;8.05;4.10;;;;;;;;;;5044756;28;20033;-68
2023/01/01 10:40:25;;;;;;;10.52;5.43;;;;;;;;;;5032312;28;20120;-68
2023/01/01 10:43:11;;;;;;;8.85;4.72;;;;;;;;;;5038898;28;20426;-69
2023/01/01 10:45:56;;;;;;;9.50;4.45;;;;;;;;;;5048386;28;20063;-69
2023/01/01 10:49:01;;;;;;;5.88;3.78;;;;;;;;;;5039533;28;20021;-69
2023/01/01 10:51:47;;;;;;;9.98;5.38;;;;;;;;;;5034773;28;20032;-72
2023/01/01 10:54:37;;;;;;;9.18;3.80;;;;;;;;;;5034384;28;20068;-70
2023/01/01 10:57:25;;;;;;;7.47;3.78;;;;;;;;;;5020666;28;20070;-69
2023/01/01 11:00:17;;;;;;;7.18;3.70;;;;;;;;;;5048414;28;20029;-69
2023/01/01 11:03:17;;;;;;;8.27;4.22;;;;;;;;;;5025492;28;20082;-76
2023/01/01 11:06:06;;;;;;;8.73;4.05;;;;;;;;;;5052060;28;20295;-75
2023/01/01 11:08:56;;;;;;;10.80;3.55;;;;;;;;;;5038439;28;20029;-75
2023/01/01 11:11:42;;;;;;;14.40;4.28;;;;;;;;;;5035488;28;20031;-76
2023/01/01 11:14:47;;;;;;;7.53;4.38;;;;;;;;;;5034854;28;20491;-77
2023/01/01 11:17:34;;;;;;;9.60;4.53;;;;;;;;;;5034903;28;20291;-90
2023/01/01 11:20:19;;;;;;;8.20;3.70;;;;;;;;;;5035764;28;20028;-90
2023/01/01 11:23:24;;;;;;;12.63;4.53;;;;;;;;;;5048593;28;20102;-66
2023/01/01 11:26:13;;;;;;;7.40;3.80;;;;;;;;;;5035125;28;20033;-69
2023/01/01 11:29:00;;;;;;;11.52;3.90;;;;;;;;;;5048984;28;20021;-69
2023/01/01 11:31:46;;;;;;;6.88;3.05;;;;;;;;;;5023416;28;20036;-69
2023/01/01 11:34:34;;;;;;;7.85;3.53;;;;;;;;;;5034924;28;20068;-69
2023/01/01 11:37:25;;;;;;;8.95;3.60;;;;;;;;;;5034781;28;20036;-87
2023/01/01 11:40:16;;;;;;;7.55;4.05;;;;;;;;;;5042518;23;20444;-78
2023/01/01 11:43:03;;;;;;;7.72;2.83;;;;;;;;;;5035061;28;20036;-78
2023/01/01 11:45:48;;;;;;;13.50;4.38;;;;;;;;;;5015038;28;20472;-78
2023/01/01 11:48:35;;;;;;;9.43;4.28;;;;;;;;;;5044868;28;20039;-78
2023/01/01 11:51:28;;;;;;;9.15;3.50;;;;;;;;;;5034851;28;20468;-78
2023/01/01 11:54:22;;;;;;;9.30;3.08;;;;;;;;;;5048511;28;20049;-79
2023/01/01 11:57:11;;;;;;;6.18;3.25;;;;;;;;;;5019450;28;20121;-70
2023/01/01 12:00:00;;;;;;;9.02;3.25;;;;;;;;;;5032261;28;20033;-68
2023/01/01 12:02:49;;;;;;;7.45;3.75;;;;;;;;;;5021722;28;20056;-68
2023/01/01 12:05:47;;;;;;;9.45;3.70;;;;;;;;;;5047929;28;20032;-68
2023/01/01 12:08:43;;;;;;;8.02;2.88;;;;;;;;;;5014641;28;20060;-67
2023/01/01 12:11:35;;;;;;;7.68;2.97;;;;;;;;;;5048215;28;20036;-66
2023/01/01 12:14:24;;;;;;;8.57;2.75;;;;;;;;;;5048046;28;20044;-76
2023/01/01 12:17:23;;;;;;;8.48;3.58;;;;;;;;;;5034407;28;20041;-75
2023/01/01 12:20:20;;;;;;;10.57;3.10;;;;;;;;;;5027206;28;20033;-75
2023/01/01 12:23:08;;;;;;;8.10;2.97;;;;;;;;;;5043976;28;20511;-79
2023/01/01 12:26:13;;;;;;;6.15;2.88;;;;;;;;;;5034193;28;20055;-76
2023/01/01 12:29:17;;;;;;;8.82;3.08;;;;;;;;;;5018473;28;20509;-77
2023/01/01 12:32:11;;;;;;;8.57;3.35;;;;;;;;;;5048152;28;20044;-69
2023/01/01 12:35:12;;;;;;;7.55;2.65;;;;;;;;;;5033900;28;20093;-73
2023/01/01 12:38:00;;;;;;;10.45;3.50;;;;;;;;;;5023740;28;20047;-73
2023/01/01 12:40:47;;;;;;;6.80;2.83;;;;;;;;;;5033962;28;20060;-72
2023/01/01 12:43:38;;;;;;;6.60;2.63;;;;;;;;;;5033838;28;20033;-74
2023/01/01 12:46:23;;;;;;;3.92;2.20;;;;;;;;;;5015925;28;20029;-73
2023/01/01 12:49:20;;;;;;;5.78;2.58;;;;;;;;;;5028995;28;20119;-74
2023/01/01 12:52:15;;;;;;;4.57;2.40;;;;;;;;;;5017206;28;20402;-73
2023/01/01 12:55:03;;;;;;;7.18;2.50;;;;;;;;;;5033664;28;20036;-83
2023/01/01 12:57:51;;;;;;;7.70;2.70;;;;;;;;;;5026871;28;20045;-82
2023/01/01 13:00:37;;;;;;;8.18;2.53;;;;;;;;;;5049074;28;20029;-83
2023/01/01 13:03:29;;;;;;;5.10;2.50;;;;;;;;;;5033841;28;20025;-82
2023/01/01 13:06:16;;;;;;;6.55;2.35;;;;;;;;;;5028502;28;20111;-82
2023/01/01 13:09:05;;;;;;;6.28;3.38;;;;;;;;;;5019706;28;20537;-73
2023/01/01 13:11:55;;;;;;;7.35;3.60;;;;;;;;;;5033521;28;20029;-73
2023/01/01 13:14:41;;;;;;;8.50;2.85;;;;;;;;;;5033327;28;20573;-74
2023/01/01 13:17:28;;;;;;;8.93;2.70;;;;;;;;;;5029344;28;20041;-74
2023/01/01 13:20:14;;;;;;;7.03;2.85;;;;;;;;;;5033376;28;20040;-75
2023/01/01 13:23:00;;;;;;;6.18;2.42;;;;;;;;;;5019474;28;20029;-73
2023/01/01 13:25:45;;;;;;;4.50;2.40;;;;;;;;;;5047120;28;20029;-74
2023/01/01 13:28:30;;;;;;;4.90;2.33;;;;;;;;;;5047539;28;20077;-73
2023/01/01 13:31:15;;;;;;;3.90;2.30;;;;;;;;;;5047261;28;20090;-68
2023/01/01 13:34:20;;;;;;;10.00;3.38;;;;;;;;;;5033427;28;20044;-68
2023/01/01 13:37:16;;;;;;;12.98;3.80;;;;;;;;;;5046506;28;20060;-70
2023/01/01 13:40:24;;;;;;;12.38;2.60;;;;;;;;;;5032752;28;20044;-69
2023/01/01 13:43:19;;;;;;;5.82;2.47;;;;;;;;;;5033027;28;20040;-68
2023/01/01 13:46:06;;;;;;;7.90;2.45;;;;;;;;;;5033251;28;20037;-75
2023/01/01 13:49:18;;;;;;;8.57;2.25;;;;;;;;;;5031768;28;20071;-82
2023/01/01 13:52:17;;;;;;;6.60;2.90;;;;;;;;;;5003744;28;20041;-82
2023/01/01 13:55:02;;;;;;;7.13;3.33;;;;;;;;;;5033162;28;20669;-82
2023/01/01 13:58:05;;;;;;;8.98;3.30;;;;;;;;;;5026046;28;20397;-82
2023/01/01 14:01:11;;;;;;;8.90;3.22;;;;;;;;;;5036385;28;20029;-82
2023/01/01 14:03:58;;;;;;;8.25;3.38;;;;;;;;;;5015743;28;20033;-73
2023/01/01 14:06:48;;;;;;;7.57;3.25;;;;;;;;;;5035405;28;20039;-76
2023/01/01 14:09:33;;;;;;;8.38;3.80;;;;;;;;;;5007471;28;20102;-77
2023/01/01 14:12:19;;;;;;;8.13;3.72;;;;;;;;;;5033481;28;20539;-77
2023/01/01 14:15:34;;;;;;;6.85;3.70;;;;;;;;;;5032934;28;20049;-78
2023/01/01 14:18:22;;;;;;;10.88;3.35;;;;;;;;;;5031038;28;20508;-77
2023/01/01 14:21:09;;;;;;;8.25;3.45;;;;;;;;;;5034617;28;20548;-78
2023/01/01 14:23:56;;;;;;;9.23;3.83;;;;;;;;;;5050758;28;20419;-70
2023/01/01 14:26:41;;;;;;;9.98;3.38;;;;;;;;;;5036160;28;20392;-77
2023/01/01 14:29:30;;;;;;;10.60;3.80;;;;;;;;;;5036688;28;20397;-77
2023/01/01 14:32:23;;;;;;;9.20;3.80;;;;;;;;;;5036326;28;20037;-77
2023/01/01 14:35:13;;;;;;;5.88;2.92;;;;;;;;;;5036296;28;20527;-77
2023/01/01 14:38:15;;;;;;;5.60;2.53;;;;;;;;;;5033882;28;20036;-77
2023/01/01 14:41:07;;;;;;;5.80;3.17;;;;;;;;;;5036436;28;20171;-76
2023/01/01 14:43:53;;;;;;;6.40;3.00;;;;;;;;;;5036568;28;20522;-75
2023/01/01 14:46:43;;;;;;;9.10;2.95;;;;;;;;;;5035395;28;20029;-72
2023/01/01 14:49:37;;;;;;;11.18;3.35;;;;;;;;;;5035717;28;20590;-72
2023/01/01 14:52:27;;;;;;;7.50;2.85;;;;;;;;;;5035606;28;20047;-72
2023/01/01 14:55:17;;;;;;;8.48;3.20;;;;;;;;;;5035984;28;20500;-72
2023/01/01 14:58:02;;;;;;;;;;;;;;;;;;5036318;28;20041;-73
2023/01/01 15:00:47;;;;;;;9.15;4.13;;;;;;;;;;5023031;28;19943;-71
2023/01/01 15:03:33;;;;;;;5.72;3.08;;;;;;;;;;5035789;28;20045;-73
2023/01/01 15:06:18;;;;;;;6.00;2.95;;;;;;;;;;5010517;28;20041;-74
2023/01/01 15:09:03;;;;;;;5.40;2.67;;;;;;;;;;5035512;28;20468;-74
2023/01/01 15:11:52;;;;;;;11.05;3.95;;;;;;;;;;5049200;28;20040;-73
2023/01/01 15:14:39;;;;;;;11.52;3.42;;;;;;;;;;5022907;28;20040;-74
2023/01/01 15:17:25;;;;;;;11.18;3.83;;;;;;;;;;5035159;28;20040;-73
2023/01/01 15:20:14;;;;;;;10.75;4.72;;;;;;;;;;5035383;28;20084;-69
2023/01/01 15:22:59;;;;;;;10.38;4.20;;;;;;;;;;5035123;28;20111;-69
2023/01/01 15:25:45;;;;;;;8.90;3.75;;;;;;;;;;5034705;28;20132;-69
2023/01/01 15:28:30;;;;;;;9.50;3.42;;;;;;;;;;5049210;28;20388;-71
2023/01/01 15:31:15;;;;;;;8.60;3.70;;;;;;;;;;5048367;28;20029;-72
2023/01/01 15:34:01;;;;;;;10.05;3.58;;;;;;;;;;5035147;28;20043;-70
2023/01/01 15:36:47;;;;;;;10.25;3.30;;;;;;;;;;5034858;28;20573;-78
2023/01/01 15:39:32;;;;;;;8.23;3.30;;;;;;;;;;5034593;28;20032;-75
2023/01/01 15:42:22;;;;;;;8.38;3.17;;;;;;;;;;5047485;28;20036;-75
2023/01/01 15:45:17;;;;;;;10.02;3.45;;;;;;;;;;5020000;28;20071;-76
2023/01/01 15:48:02;;;;;;;9.65;3.70;;;;;;;;;;5027397;28;20021;-76
2023/01/01 15:50:48;;;;;;;8.35;2.95;;;;;;;;;;5031176;28;20527;-75
2023/01/01 15:53:45;;;;;;;8.77;2.97;;;;;;;;;;5033976;28;20125;-69
2023/01/01 15:56:31;;;;;;;16.17;4.82;;;;;;;;;;5034628;28;20083;-71
2023/01/01 15:59:17;;;;;;;9.63;3.92;;;;;;;;;;5016158;28;20045;-78
2023/01/01 16:02:14;;;;;;;10.30;3.83;;;;;;;;;;5029171;28;20040;-77
2023/01/01 16:05:00;;;;;;;9.45;3.70;;;;;;;;;;5034593;28;20036;-76
2023/01/01 16:07:45;;;;;;;11.75;5.00;;;;;;;;;;5048264;28;20040;-76
2023/01/01 16:10:30;;;;;;;10.90;4.40;;;;;;;;;;5015381;28;20036;-77
2023/01/01 16:13:16;;;;;;;9.75;4.20;;;;;;;;;;5034243;28;20029;-74
2023/01/01 16:16:02;;;;;;;8.98;4.22;;;;;;;;;;5034166;28;20067;-76
2023/01/01 16:18:47;;;;;;;11.35;4.95;;;;;;;;;;5020283;28;20543;-75
2023/01/01 16:21:32;;;;;;;14.57;4.57;;;;;;;;;;5034024;28;20112;-75
2023/01/01 16:24:18;;;;;;;9.60;4.13;;;;;;;;;;5033404;28;20041;-77
2023/01/01 16:27:03;;;;;;;14.07;4.97;;;;;;;;;;5034116;28;20033;-76
2023/01/01 16:29:48;;;;;;;14.90;6.22;;;;;;;;;;5033984;28;20033;-77
2023/01/01 16:32:40;;;;;;;12.70;5.75;;;;;;;;;;5047313;28;20546;-76
2023/01/01 16:35:26;;;;;;;19.17;6.97;;;;;;;;;;5034080;28;20098;-81
2023/01/01 16:38:12;;;;;;;9.27;4.60;;;;;;;;;;5031982;28;20503;-82
2023/01/01 16:40:57;;;;;;;15.10;7.57;;;;;;;;;;5014325;28;20044;-81
2023/01/01 16:43:43;;;;;;;17.10;7.28;;;;;;;;;;5035193;28;20025;-83
2023/01/01 16:46:29;;;;;;;17.73;7.30;;;;;;;;;;5020697;28;20025;-82